OOCL California — VRWC8 — position and weather

sailwx.info

Track history (hours):
 
Tides and Currents Weather Stations Pressure Air Temp Water Temp Dewpoint Dewpoint Depression Visibility Wind Speed Wind Dir Waves Ship Positions

OOCL California

Last reported at 2014-Jul-23 15:18 UTC. Time now 2014-Jul-24 03:57 UTC.
Position N 22°19' E 114°05'.

Length 276 m; beam 40 m; draft 14 m.

Type: Cargo ship. MMSI: 477704000.

Date/timePositionNaut miles runAvg speedWind from/ knotsBaromVisibWave heightAir tempDewpointWater temp
2014-Jul-23 15:18N 22°19' E 114°05'1110.8
2014-Jul-23 14:18N 22°23' E 113°54'5 6.3
2014-Jul-23 13:33N 22°27' E 113°54'0 0.2
2014-Jul-23 12:30N 22°27' E 113°54'0 0.0
2014-Jul-23 11:30N 22°27' E 113°54'0 0.0
2014-Jul-23 10:30N 22°27' E 113°54'0 0.0
2014-Jul-23 09:33N 22°27' E 113°54'0 0.0
2014-Jul-23 08:30N 22°27' E 113°54'0 0.0
2014-Jul-23 07:33N 22°27' E 113°54'0 0.0
2014-Jul-23 06:33N 22°27' E 113°54'0 0.0
2014-Jul-23 05:33N 22°27' E 113°54'0 0.0
2014-Jul-23 04:33N 22°27' E 113°54'0 0.0
2014-Jul-23 03:33N 22°27' E 113°54'0 0.0
2014-Jul-23 02:33N 22°27' E 113°54'0 0.0
2014-Jul-23 01:27N 22°27' E 113°54'0 0.0
2014-Jul-23 00:33N 22°27' E 113°54'0 0.0
2014-Jul-22 23:24N 22°27' E 113°54'1 0.8
2014-Jul-22 22:32N 22°27' E 113°53'13 9.0
2014-Jul-22 21:07N 22°20' E 114°05'152 9.0
2014-Jul-22 04:11N 22°48' E 116°47'710.8
2014-Jul-22 03:30N 22°52' E 116°54'1716.2
2014-Jul-22 02:28N 23°01' E 117°09'3216.5
2014-Jul-22 00:33N 23°18' E 117°38'2015.5
2014-Jul-21 23:14N 23°31' E 117°55'1014.8
2014-Jul-21 22:33N 23°37' E 118°04'1514.7
2014-Jul-21 21:33N 23°47' E 118°16'1514.9
2014-Jul-21 20:33N 23°57' E 118°27'515.5
2014-Jul-21 20:15N 23°60' E 118°32'2715.5
2014-Jul-21 18:29N 24°18' E 118°54'1515.7
2014-Jul-21 17:32N 24°28' E 119°07'3115.6
2014-Jul-21 15:32N 24°48' E 119°33'32317.5
2014-Jul-20 21:03N 29°22' E 122°44'1217.7
2014-Jul-20 20:24N 29°33' E 122°50'2217.9
2014-Jul-20 19:09N 29°54' E 122°56'1217.7
2014-Jul-20 18:27N 30°05' E 123°03'1618.0
2014-Jul-20 17:32N 30°21' E 123°06'1818.4
2014-Jul-20 16:32N 30°40' E 123°03'1818.0
2014-Jul-20 15:33N 30°56' E 122°55'2311.5
2014-Jul-20 13:32N 31°06' E 122°31'1413.5
2014-Jul-20 12:31N 31°08' E 122°15'2813.6
2014-Jul-20 10:30N 31°18' E 121°45'9 9.3
2014-Jul-20 09:33N 31°22' E 121°36'1 0.8
2014-Jul-20 08:26N 31°22' E 121°35'0 0.0
2014-Jul-20 07:32N 31°22' E 121°35'0 0.0
2014-Jul-20 06:26N 31°22' E 121°35'0 0.0
2014-Jul-20 05:20N 31°22' E 121°35'0 0.0
2014-Jul-20 04:20N 31°22' E 121°35'0 0.0
2014-Jul-20 02:32N 31°22' E 121°35'0 0.0
2014-Jul-20 01:32N 31°22' E 121°35'0 0.0
2014-Jul-20 00:26N 31°22' E 121°35'0 0.0
2014-Jul-19 23:32N 31°22' E 121°35'0 0.0
2014-Jul-19 22:20N 31°22' E 121°35'0 0.0
2014-Jul-19 21:32N 31°22' E 121°35'0 0.0
2014-Jul-19 20:26N 31°22' E 121°35'0 0.0
2014-Jul-19 19:32N 31°22' E 121°35'0 0.1
2014-Jul-19 18:32N 31°22' E 121°35'0 0.1
2014-Jul-19 17:32N 31°22' E 121°35'0 0.0
2014-Jul-19 16:26N 31°22' E 121°35'0 0.0
2014-Jul-19 15:32N 31°22' E 121°35'0 0.0
2014-Jul-19 14:26N 31°22' E 121°35'0 0.0
2014-Jul-19 13:32N 31°22' E 121°35'0 0.0
2014-Jul-19 12:20N 31°22' E 121°35'0 0.0
2014-Jul-19 11:32N 31°22' E 121°35'0 0.0
2014-Jul-19 10:32N 31°22' E 121°35'0 0.0
2014-Jul-19 09:32N 31°22' E 121°35'1 0.9
2014-Jul-19 08:33N 31°23' E 121°36'4 1.2
2014-Jul-19 05:28N 31°20' E 121°39'0 0.0
2014-Jul-19 03:22N 31°20' E 121°39'0 0.0
2014-Jul-19 02:10N 31°20' E 121°39'0 0.0
2014-Jul-19 01:28N 31°20' E 121°39'0 0.0
2014-Jul-19 00:28N 31°20' E 121°39'0 0.0
2014-Jul-18 22:28N 31°20' E 121°39'0 0.0
2014-Jul-18 21:16N 31°20' E 121°39'0 0.0
2014-Jul-18 20:19N 31°20' E 121°39'1 1.1
2014-Jul-18 19:33N 31°21' E 121°40'9 8.6
2014-Jul-18 18:32N 31°17' E 121°49'1010.0
2014-Jul-18 17:30N 31°15' E 122°00'23 9.6
2014-Jul-18 15:08N 31°06' E 122°25'8 9.0
2014-Jul-18 14:14N 31°06' E 122°35'17 8.9
2014-Jul-18 12:20N 30°59' E 122°52'911.4
2014-Jul-18 11:33N 30°51' E 122°57'1311.7
2014-Jul-18 10:27N 30°39' E 123°03'1111.5
2014-Jul-18 09:33N 30°29' E 123°06'1111.2
2014-Jul-18 08:33N 30°18' E 123°08'7 6.9
2014-Jul-18 07:33N 30°11' E 123°09'1 1.5
2014-Jul-18 06:33N 30°10' E 123°09'6 5.7
2014-Jul-18 05:33N 30°04' E 123°08'1010.4
2014-Jul-18 04:33N 29°55' E 123°02'10 9.9
2014-Jul-18 03:33N 29°46' E 122°58'10 9.5
2014-Jul-18 02:28N 29°37' E 122°52'9 9.6
2014-Jul-18 01:31N 29°29' E 122°48'10 9.8
2014-Jul-18 00:31N 29°20' E 122°43'9 9.3
2014-Jul-17 23:33N 29°12' E 122°38'9 9.3
2014-Jul-17 22:33N 29°03' E 122°35'10 9.1
2014-Jul-17 21:30N 28°55' E 122°29'30911.4
2014-Jul-16 18:28N 24°37' E 119°19'1212.8
2014-Jul-16 17:33N 24°29' E 119°09'1413.6
2014-Jul-16 16:33N 24°21' E 118°58'1514.5
2014-Jul-16 15:33N 24°11' E 118°46'1414.3
2014-Jul-16 14:33N 24°02' E 118°34'1414.4
2014-Jul-16 13:33N 23°52' E 118°22'1413.9
2014-Jul-16 12:33N 23°43' E 118°11'1413.3
2014-Jul-16 11:27N 23°33' E 117°59'1312.3
2014-Jul-16 10:22N 23°25' E 117°48'5012.9
2014-Jul-16 06:32N 22°57' E 117°03'1414.3
2014-Jul-16 05:31N 22°50' E 116°49'1414.2
2014-Jul-16 04:31N 22°42' E 116°37'1614.8
2014-Jul-16 03:27N 22°33' E 116°23'12313.6
2014-Jul-15 18:23N 22°11' E 114°11'911.2
2014-Jul-15 17:33N 22°19' E 114°06'1 0.1
2014-Jul-15 05:32N 22°19' E 114°06'  
Track history (hours):
 
Tides and Currents Weather Stations Pressure Air Temp Water Temp Dewpoint Dewpoint Depression Visibility Wind Speed Wind Dir Waves Ship Positions

OOCL California

Last reported at 2014-Jul-23 15:18 UTC. Time now 2014-Jul-24 03:57 UTC.
Position N 22°19' E 114°05'.

Length 276 m; beam 40 m; draft 14 m.

Type: Cargo ship. MMSI: 477704000.

Date/timePositionNaut miles runAvg speedWind from/ knotsBaromVisibWave heightAir tempDewpointWater temp
2014-Jul-23 15:18N 22°19' E 114°05'1110.8
2014-Jul-23 14:18N 22°23' E 113°54'5 6.3
2014-Jul-23 13:33N 22°27' E 113°54'0 0.2
2014-Jul-23 12:30N 22°27' E 113°54'0 0.0
2014-Jul-23 11:30N 22°27' E 113°54'0 0.0
2014-Jul-23 10:30N 22°27' E 113°54'0 0.0
2014-Jul-23 09:33N 22°27' E 113°54'0 0.0
2014-Jul-23 08:30N 22°27' E 113°54'0 0.0
2014-Jul-23 07:33N 22°27' E 113°54'0 0.0
2014-Jul-23 06:33N 22°27' E 113°54'0 0.0
2014-Jul-23 05:33N 22°27' E 113°54'0 0.0
2014-Jul-23 04:33N 22°27' E 113°54'0 0.0
2014-Jul-23 03:33N 22°27' E 113°54'0 0.0
2014-Jul-23 02:33N 22°27' E 113°54'0 0.0
2014-Jul-23 01:27N 22°27' E 113°54'0 0.0
2014-Jul-23 00:33N 22°27' E 113°54'0 0.0
2014-Jul-22 23:24N 22°27' E 113°54'1 0.8
2014-Jul-22 22:32N 22°27' E 113°53'13 9.0
2014-Jul-22 21:07N 22°20' E 114°05'152 9.0
2014-Jul-22 04:11N 22°48' E 116°47'710.8
2014-Jul-22 03:30N 22°52' E 116°54'1716.2
2014-Jul-22 02:28N 23°01' E 117°09'3216.5
2014-Jul-22 00:33N 23°18' E 117°38'2015.5
2014-Jul-21 23:14N 23°31' E 117°55'1014.8
2014-Jul-21 22:33N 23°37' E 118°04'1514.7
2014-Jul-21 21:33N 23°47' E 118°16'1514.9
2014-Jul-21 20:33N 23°57' E 118°27'515.5
2014-Jul-21 20:15N 23°60' E 118°32'2715.5
2014-Jul-21 18:29N 24°18' E 118°54'1515.7
2014-Jul-21 17:32N 24°28' E 119°07'3115.6
2014-Jul-21 15:32N 24°48' E 119°33'32317.5
2014-Jul-20 21:03N 29°22' E 122°44'1217.7
2014-Jul-20 20:24N 29°33' E 122°50'2217.9
2014-Jul-20 19:09N 29°54' E 122°56'1217.7
2014-Jul-20 18:27N 30°05' E 123°03'1618.0
2014-Jul-20 17:32N 30°21' E 123°06'1818.4
2014-Jul-20 16:32N 30°40' E 123°03'1818.0
2014-Jul-20 15:33N 30°56' E 122°55'2311.5
2014-Jul-20 13:32N 31°06' E 122°31'1413.5
2014-Jul-20 12:31N 31°08' E 122°15'2813.6
2014-Jul-20 10:30N 31°18' E 121°45'9 9.3
2014-Jul-20 09:33N 31°22' E 121°36'1 0.8
2014-Jul-20 08:26N 31°22' E 121°35'0 0.0
2014-Jul-20 07:32N 31°22' E 121°35'0 0.0
2014-Jul-20 06:26N 31°22' E 121°35'0 0.0
2014-Jul-20 05:20N 31°22' E 121°35'0 0.0
2014-Jul-20 04:20N 31°22' E 121°35'0 0.0
2014-Jul-20 02:32N 31°22' E 121°35'0 0.0
2014-Jul-20 01:32N 31°22' E 121°35'0 0.0
2014-Jul-20 00:26N 31°22' E 121°35'0 0.0
2014-Jul-19 23:32N 31°22' E 121°35'0 0.0
2014-Jul-19 22:20N 31°22' E 121°35'0 0.0
2014-Jul-19 21:32N 31°22' E 121°35'0 0.0
2014-Jul-19 20:26N 31°22' E 121°35'0 0.0
2014-Jul-19 19:32N 31°22' E 121°35'0 0.1
2014-Jul-19 18:32N 31°22' E 121°35'0 0.1
2014-Jul-19 17:32N 31°22' E 121°35'0 0.0
2014-Jul-19 16:26N 31°22' E 121°35'0 0.0
2014-Jul-19 15:32N 31°22' E 121°35'0 0.0
2014-Jul-19 14:26N 31°22' E 121°35'0 0.0
2014-Jul-19 13:32N 31°22' E 121°35'0 0.0
2014-Jul-19 12:20N 31°22' E 121°35'0 0.0
2014-Jul-19 11:32N 31°22' E 121°35'0 0.0
2014-Jul-19 10:32N 31°22' E 121°35'0 0.0
2014-Jul-19 09:32N 31°22' E 121°35'1 0.9
2014-Jul-19 08:33N 31°23' E 121°36'4 1.2
2014-Jul-19 05:28N 31°20' E 121°39'0 0.0
2014-Jul-19 03:22N 31°20' E 121°39'0 0.0
2014-Jul-19 02:10N 31°20' E 121°39'0 0.0
2014-Jul-19 01:28N 31°20' E 121°39'0 0.0
2014-Jul-19 00:28N 31°20' E 121°39'0 0.0
2014-Jul-18 22:28N 31°20' E 121°39'0 0.0
2014-Jul-18 21:16N 31°20' E 121°39'0 0.0
2014-Jul-18 20:19N 31°20' E 121°39'1 1.1
2014-Jul-18 19:33N 31°21' E 121°40'9 8.6
2014-Jul-18 18:32N 31°17' E 121°49'1010.0
2014-Jul-18 17:30N 31°15' E 122°00'23 9.6
2014-Jul-18 15:08N 31°06' E 122°25'8 9.0
2014-Jul-18 14:14N 31°06' E 122°35'17 8.9
2014-Jul-18 12:20N 30°59' E 122°52'911.4
2014-Jul-18 11:33N 30°51' E 122°57'1311.7
2014-Jul-18 10:27N 30°39' E 123°03'1111.5
2014-Jul-18 09:33N 30°29' E 123°06'1111.2
2014-Jul-18 08:33N 30°18' E 123°08'7 6.9
2014-Jul-18 07:33N 30°11' E 123°09'1 1.5
2014-Jul-18 06:33N 30°10' E 123°09'6 5.7
2014-Jul-18 05:33N 30°04' E 123°08'1010.4
2014-Jul-18 04:33N 29°55' E 123°02'10 9.9
2014-Jul-18 03:33N 29°46' E 122°58'10 9.5
2014-Jul-18 02:28N 29°37' E 122°52'9 9.6
2014-Jul-18 01:31N 29°29' E 122°48'10 9.8
2014-Jul-18 00:31N 29°20' E 122°43'9 9.3
2014-Jul-17 23:33N 29°12' E 122°38'9 9.3
2014-Jul-17 22:33N 29°03' E 122°35'10 9.1
2014-Jul-17 21:30N 28°55' E 122°29'30911.4
2014-Jul-16 18:28N 24°37' E 119°19'1212.8
2014-Jul-16 17:33N 24°29' E 119°09'1413.6
2014-Jul-16 16:33N 24°21' E 118°58'1514.5
2014-Jul-16 15:33N 24°11' E 118°46'1414.3
2014-Jul-16 14:33N 24°02' E 118°34'1414.4
2014-Jul-16 13:33N 23°52' E 118°22'1413.9
2014-Jul-16 12:33N 23°43' E 118°11'1413.3
2014-Jul-16 11:27N 23°33' E 117°59'1312.3
2014-Jul-16 10:22N 23°25' E 117°48'5012.9
2014-Jul-16 06:32N 22°57' E 117°03'1414.3
2014-Jul-16 05:31N 22°50' E 116°49'1414.2
2014-Jul-16 04:31N 22°42' E 116°37'1614.8
2014-Jul-16 03:27N 22°33' E 116°23'12313.6
2014-Jul-15 18:23N 22°11' E 114°11'911.2
2014-Jul-15 17:33N 22°19' E 114°06'1 0.1
2014-Jul-15 05:32N 22°19' E 114°06'  

Dump ship's entire track history